createdAt,value
2023-01-04T00:00:48.942Z,99673.09
2023-01-04T00:03:18.376Z,99676.09
2023-01-04T00:05:47.646Z,99662.63
2023-01-04T00:08:16.752Z,99661.47
2023-01-04T00:10:46.117Z,99661.00
2023-01-04T00:13:16.725Z,99658.56
2023-01-04T00:15:45.912Z,99654.38
2023-01-04T00:18:15.435Z,99651.47
2023-01-04T00:20:44.897Z,99648.66
2023-01-04T00:23:14.064Z,99649.94
2023-01-04T00:25:43.524Z,99650.53
2023-01-04T00:28:12.616Z,99659.22
2023-01-04T00:30:44.059Z,99653.53
2023-01-04T00:33:13.519Z,99654.47
2023-01-04T00:35:46.160Z,99661.91
2023-01-04T00:38:15.638Z,99653.09
2023-01-04T00:40:44.891Z,99645.31
2023-01-04T00:43:14.298Z,99650.78
2023-01-04T00:45:45.953Z,99633.25
2023-01-04T00:48:15.164Z,99637.31
2023-01-04T00:50:46.115Z,99635.91
2023-01-04T00:53:19.060Z,99635.66
2023-01-04T00:55:50.049Z,99640.91
2023-01-04T00:58:19.270Z,99641.00
2023-01-04T01:00:53.070Z,99650.41
2023-01-04T01:03:22.499Z,99645.66
2023-01-04T01:05:51.791Z,99647.97
2023-01-04T01:08:26.763Z,99652.03
2023-01-04T01:10:56.786Z,99663.78
2023-01-04T01:13:27.826Z,99665.88
2023-01-04T01:15:58.548Z,99663.63
2023-01-04T01:18:27.805Z,99672.34
2023-01-04T01:20:56.889Z,99675.50
2023-01-04T01:23:25.980Z,99678.66
2023-01-04T01:25:55.232Z,99673.28
2023-01-04T01:28:24.422Z,99668.19
2023-01-04T01:30:54.736Z,99669.81
2023-01-04T01:33:25.268Z,99665.75
2023-01-04T01:35:54.407Z,99660.88
2023-01-04T01:38:23.497Z,99669.59
2023-01-04T01:40:52.959Z,99667.72
2023-01-04T01:43:25.559Z,99659.00
2023-01-04T01:45:58.021Z,99662.13
2023-01-04T01:48:30.996Z,99659.50
2023-01-04T01:51:04.763Z,99662.63
2023-01-04T01:53:42.173Z,99658.69
2023-01-04T01:56:11.978Z,99656.78
2023-01-04T01:58:45.023Z,99656.59
2023-01-04T02:01:14.788Z,99658.09
2023-01-04T02:03:45.964Z,99658.69
2023-01-04T02:06:22.740Z,99660.53
2023-01-04T02:08:52.636Z,99664.47
2023-01-04T02:11:21.800Z,99660.88
2023-01-04T02:14:09.305Z,99663.78
2023-01-04T02:16:56.416Z,99657.63
2023-01-04T02:20:03.876Z,99668.66
2023-01-04T02:23:16.851Z,99662.16
2023-01-04T02:26:59.168Z,99651.47
2023-01-04T02:30:33.760Z,99654.59
2023-01-04T02:33:18.174Z,99654.72
2023-01-04T02:36:00.579Z,99646.03
2023-01-04T02:38:39.823Z,99657.50
2023-01-04T02:41:20.334Z,99654.94
2023-01-04T02:44:14.464Z,99650.88
2023-01-04T02:46:48.034Z,99656.09
2023-01-04T02:49:36.325Z,99649.16
2023-01-04T02:52:05.577Z,99644.03
2023-01-04T02:54:35.181Z,99649.63
2023-01-04T02:57:27.005Z,99648.81
2023-01-04T03:00:21.198Z,99652.50
2023-01-04T03:03:27.050Z,99651.34
2023-01-04T03:06:16.596Z,99658.31
2023-01-04T03:08:57.672Z,99652.03
2023-01-04T03:11:54.867Z,99651.47
2023-01-04T03:14:33.375Z,99653.41
2023-01-04T03:17:05.960Z,99640.75
2023-01-04T03:19:55.508Z,99651.78
2023-01-04T03:22:52.736Z,99645.19
2023-01-04T03:25:53.933Z,99647.53
2023-01-04T03:28:44.286Z,99649.16
2023-01-04T03:31:38.436Z,99644.25
2023-01-04T03:34:25.161Z,99641.00
2023-01-04T03:37:08.639Z,99635.44
2023-01-04T03:40:10.680Z,99633.34
2023-01-04T03:43:06.150Z,99630.56
2023-01-04T03:46:01.875Z,99629.41
2023-01-04T03:48:37.913Z,99624.16
2023-01-04T03:51:15.706Z,99620.22
2023-01-04T03:53:54.695Z,99626.72
2023-01-04T03:56:26.447Z,99621.50
2023-01-04T03:58:55.932Z,99623.59
2023-01-04T04:01:28.339Z,99618.03
2023-01-04T04:04:15.352Z,99620.78
2023-01-04T04:07:01.926Z,99616.84
2023-01-04T04:09:31.142Z,99624.63
2023-01-04T04:12:01.653Z,99619.84
2023-01-04T04:14:31.093Z,99618.69
2023-01-04T04:17:00.337Z,99625.44
2023-01-04T04:19:29.562Z,99622.19
2023-01-04T04:21:58.704Z,99625.78
2023-01-04T04:24:28.633Z,99625.78
2023-01-04T04:26:57.829Z,99628.56
2023-01-04T04:29:28.243Z,99634.97
2023-01-04T04:31:57.401Z,99634.03
2023-01-04T04:34:26.588Z,99628.94
2023-01-04T04:36:55.758Z,99626.84
2023-01-04T04:39:24.903Z,99617.31
2023-01-04T04:41:53.024Z,99622.66
2023-01-04T04:44:22.439Z,99628.94
2023-01-04T04:46:53.031Z,99620.78
2023-01-04T04:49:22.389Z,99624.75
2023-01-04T04:51:51.490Z,99619.06
2023-01-04T04:54:23.087Z,99625.69
2023-01-04T04:56:54.416Z,99625.22
2023-01-04T04:59:23.507Z,99625.22
2023-01-04T05:01:54.195Z,99632.53
2023-01-04T05:04:23.459Z,99627.53
2023-01-04T05:06:53.344Z,99630.53
2023-01-04T05:09:24.416Z,99630.53
2023-01-04T05:12:11.150Z,99629.38
2023-01-04T05:14:40.175Z,99634.53
2023-01-04T05:17:10.820Z,99625.44
2023-01-04T05:19:42.190Z,99628.94
2023-01-04T05:22:11.362Z,99628.69
2023-01-04T05:24:40.534Z,99631.25
2023-01-04T05:27:09.674Z,99623.59
2023-01-04T05:29:56.574Z,99626.13
2023-01-04T05:32:27.097Z,99621.72
2023-01-04T05:34:56.188Z,99627.41
2023-01-04T05:37:25.787Z,99626.56
2023-01-04T05:39:54.951Z,99630.28
2023-01-04T05:42:27.923Z,99637.03
2023-01-04T05:44:59.363Z,99635.88
2023-01-04T05:47:30.486Z,99637.63
2023-01-04T05:49:59.736Z,99630.28
2023-01-04T05:52:29.513Z,99631.22
2023-01-04T05:54:58.685Z,99632.63
2023-01-04T05:57:28.129Z,99634.41
2023-01-04T05:59:57.378Z,99639.72
2023-01-04T06:02:32.294Z,99628.47
2023-01-04T06:05:01.913Z,99637.06
2023-01-04T06:07:35.005Z,99633.81
2023-01-04T06:10:04.229Z,99636.56
2023-01-04T06:12:33.400Z,99636.25
2023-01-04T06:15:02.570Z,99632.41
2023-01-04T06:17:33.287Z,99641.59
2023-01-04T06:20:02.577Z,99633.56
2023-01-04T06:22:32.900Z,99634.28
2023-01-04T06:25:02.069Z,99624.50
2023-01-04T06:27:31.304Z,99631.03
2023-01-04T06:30:00.455Z,99629.84
2023-01-04T06:32:29.682Z,99625.44
2023-01-04T06:35:00.405Z,99623.81
2023-01-04T06:37:29.569Z,99626.25
2023-01-04T06:39:58.740Z,99638.19
2023-01-04T06:42:45.984Z,99637.19
2023-01-04T06:45:16.521Z,99638.31
2023-01-04T06:47:47.902Z,99636.13
2023-01-04T06:50:18.788Z,99640.91
2023-01-04T06:52:47.932Z,99638.22
2023-01-04T06:55:17.301Z,99639.03
2023-01-04T06:57:46.351Z,99633.56
2023-01-04T07:00:16.995Z,99636.81
2023-01-04T07:03:13.935Z,99632.63
2023-01-04T07:05:36.799Z,99636.25
2023-01-04T07:08:08.361Z,99628.94
2023-01-04T07:10:38.514Z,99637.63
2023-01-04T07:13:08.261Z,99638.22
2023-01-04T07:15:40.681Z,99646.56
2023-01-04T07:18:11.200Z,99647.84
2023-01-04T07:20:41.820Z,99644.69
2023-01-04T07:23:11.759Z,99645.88
2023-01-04T07:25:40.896Z,99646.09
2023-01-04T07:28:10.866Z,99649.09
2023-01-04T07:30:40.080Z,99649.09
2023-01-04T07:33:09.372Z,99641.44
2023-01-04T07:35:38.463Z,99639.78
2023-01-04T07:38:09.022Z,99639.06
2023-01-04T07:40:38.058Z,99642.44
2023-01-04T07:43:28.231Z,99633.72
2023-01-04T07:45:57.936Z,99638.38
2023-01-04T07:48:29.702Z,99640.53
2023-01-04T07:50:58.870Z,99648.31
2023-01-04T07:53:29.588Z,99656.69
2023-01-04T07:55:59.198Z,99653.81
2023-01-04T07:58:32.992Z,99652.31
2023-01-04T08:01:08.854Z,99652.09
2023-01-04T08:03:38.513Z,99651.50
2023-01-04T08:06:09.341Z,99654.03
2023-01-04T08:08:39.983Z,99642.09
2023-01-04T08:11:12.996Z,99644.44
2023-01-04T08:13:42.679Z,99653.50
2023-01-04T08:16:27.770Z,99652.31
2023-01-04T08:18:59.304Z,99654.09
2023-01-04T08:21:31.088Z,99648.09
2023-01-04T08:24:02.183Z,99652.50
2023-01-04T08:26:31.758Z,99646.50
2023-01-04T08:29:00.995Z,99645.81
2023-01-04T08:31:32.677Z,99646.63
2023-01-04T08:34:05.147Z,99637.97
2023-01-04T08:36:36.583Z,99637.63
2023-01-04T08:39:07.847Z,99634.00
2023-01-04T08:44:40.136Z,99636.53
2023-01-04T08:47:09.945Z,99629.66
2023-01-04T08:49:39.132Z,99626.63
2023-01-04T08:52:10.095Z,99625.19
2023-01-04T08:54:40.614Z,99631.34
2023-01-04T08:57:09.673Z,99634.06
2023-01-04T08:59:38.877Z,99626.25
2023-01-04T09:02:21.206Z,99631.84
2023-01-04T09:04:51.415Z,99624.88
2023-01-04T09:07:21.256Z,99620.97
2023-01-04T09:09:51.771Z,99622.91
2023-01-04T09:12:20.871Z,99615.88
2023-01-04T09:14:50.377Z,99610.06
2023-01-04T09:17:19.789Z,99604.19
2023-01-04T09:19:49.415Z,99603.00
2023-01-04T09:22:18.824Z,99599.59
2023-01-04T09:24:50.106Z,99603.59
2023-01-04T09:27:20.788Z,99599.66
2023-01-04T09:29:49.894Z,99601.44
2023-01-04T09:32:19.733Z,99605.94
2023-01-04T09:34:49.258Z,99607.19
2023-01-04T09:37:18.408Z,99608.91
2023-01-04T09:39:47.744Z,99599.63
2023-01-04T09:42:24.248Z,99593.41
2023-01-04T09:47:56.088Z,99577.81
2023-01-04T09:50:29.874Z,99567.81
2023-01-04T09:53:12.596Z,99569.81
2023-01-04T09:55:48.250Z,99567.66
2023-01-04T09:58:29.309Z,99565.47
2023-01-04T10:01:04.828Z,99561.53
2023-01-04T10:03:36.387Z,99564.19
2023-01-04T10:06:09.329Z,99554.63
2023-01-04T10:08:38.590Z,99546.56
2023-01-04T10:11:33.386Z,99540.44
2023-01-04T10:14:35.540Z,99540.75
2023-01-04T10:17:35.662Z,99539.09
2023-01-04T10:21:26.756Z,99539.13
2023-01-04T10:24:12.418Z,99522.09
2023-01-04T10:26:47.173Z,99522.59
2023-01-04T10:29:45.657Z,99516.72
2023-01-04T10:32:21.136Z,99520.16
2023-01-04T10:34:50.897Z,99517.72
2023-01-04T10:37:23.485Z,99514.34
2023-01-04T10:39:55.889Z,99499.94
2023-01-04T10:42:38.361Z,99502.34
2023-01-04T10:45:18.080Z,99499.88
2023-01-04T10:48:03.928Z,99486.97
2023-01-04T10:50:41.013Z,99470.16
2023-01-04T10:53:17.960Z,99472.94
2023-01-04T10:56:25.236Z,99464.94
2023-01-04T10:58:51.535Z,99472.44
2023-01-04T11:01:29.847Z,99473.19
2023-01-04T11:04:06.503Z,99463.25
2023-01-04T11:06:42.054Z,99453.34
2023-01-04T11:09:24.887Z,99452.53
2023-01-04T11:11:58.186Z,99444.06
2023-01-04T11:14:33.308Z,99452.97
2023-01-04T11:17:10.198Z,99440.69
2023-01-04T11:19:40.314Z,99444.75
2023-01-04T11:22:18.079Z,99436.81
2023-01-04T11:25:32.554Z,99431.91
2023-01-04T11:27:48.134Z,99421.91
2023-01-04T11:30:21.092Z,99413.09
2023-01-04T11:32:59.631Z,99417.44
2023-01-04T11:35:42.823Z,99415.84
2023-01-04T11:38:16.571Z,99417.84
2023-01-04T11:40:59.861Z,99421.44
2023-01-04T11:43:31.184Z,99411.81
2023-01-04T11:46:05.503Z,99419.16
2023-01-04T11:48:42.541Z,99406.69
2023-01-04T11:51:39.554Z,99398.94
2023-01-04T11:54:21.129Z,99386.78
2023-01-04T11:57:10.831Z,99384.34
2023-01-04T11:59:41.056Z,99380.38
2023-01-04T12:05:28.206Z,99370.84
2023-01-04T12:07:59.357Z,99382.91
2023-01-04T12:10:31.249Z,99368.44
2023-01-04T12:13:03.305Z,99366.81
2023-01-04T12:15:40.129Z,99368.06
2023-01-04T12:18:18.716Z,99366.88
2023-01-04T12:20:50.405Z,99357.22
2023-01-04T12:23:20.705Z,99350.41
2023-01-04T12:25:52.360Z,99347.59
2023-01-04T12:28:37.311Z,99339.97
2023-01-04T12:31:33.686Z,99329.13
2023-01-04T12:34:43.485Z,99323.94
2023-01-04T12:37:49.717Z,99315.50
2023-01-04T12:40:54.303Z,99319.53
2023-01-04T12:43:28.674Z,99318.72
2023-01-04T12:47:01.277Z,99311.47
2023-01-04T12:50:00.256Z,99301.34
2023-01-04T12:55:59.389Z,99306.13
2023-01-04T12:59:25.842Z,99304.13
2023-01-04T13:02:23.417Z,99302.00
2023-01-04T13:05:16.933Z,99291.72
2023-01-04T13:07:50.818Z,99292.47
2023-01-04T13:10:33.689Z,99285.47
2023-01-04T13:13:34.020Z,99286.09
2023-01-04T13:16:18.936Z,99272.22
2023-01-04T13:18:51.563Z,99276.19
2023-01-04T13:21:29.624Z,99275.63
2023-01-04T13:24:02.659Z,99268.38
2023-01-04T13:26:39.482Z,99273.47
2023-01-04T13:29:13.571Z,99269.84
2023-01-04T13:31:50.104Z,99259.81
2023-01-04T13:34:28.490Z,99262.97
2023-01-04T13:37:17.283Z,99264.38
2023-01-04T13:39:51.198Z,99268.09
2023-01-04T13:42:28.348Z,99256.03
2023-01-04T13:46:10.032Z,99249.16
2023-01-04T13:48:42.848Z,99248.38
2023-01-04T13:51:18.562Z,99248.94
2023-01-04T13:53:58.642Z,99251.59
2023-01-04T13:56:31.899Z,99252.22
2023-01-04T13:59:01.601Z,99250.91
2023-01-04T14:01:33.455Z,99247.34
2023-01-04T14:04:06.096Z,99240.97
2023-01-04T14:06:41.185Z,99251.78
2023-01-04T14:09:18.491Z,99245.13
2023-01-04T14:12:07.692Z,99239.75
2023-01-04T14:14:47.356Z,99241.03
2023-01-04T14:17:32.658Z,99246.13
2023-01-04T14:20:02.932Z,99245.34
2023-01-04T14:22:53.673Z,99239.00
2023-01-04T14:25:44.996Z,99231.09
2023-01-04T14:28:47.053Z,99232.50
2023-01-04T14:31:33.960Z,99225.75
2023-01-04T14:34:12.962Z,99223.38
2023-01-04T14:36:45.409Z,99213.63
2023-01-04T14:39:35.062Z,99219.03
2023-01-04T14:42:05.257Z,99219.19
2023-01-04T14:44:41.187Z,99227.47
2023-01-04T14:47:12.935Z,99215.34
2023-01-04T14:49:42.114Z,99211.06
2023-01-04T14:52:13.670Z,99207.53
2023-01-04T14:54:42.811Z,99197.88
2023-01-04T14:57:12.420Z,99193.53
2023-01-04T14:59:44.152Z,99184.63
2023-01-04T15:02:14.136Z,99184.19
2023-01-04T15:04:43.340Z,99176.25
2023-01-04T15:07:35.503Z,99170.25
2023-01-04T15:10:06.827Z,99182.59
2023-01-04T15:12:36.039Z,99169.56
2023-01-04T15:15:08.257Z,99158.19
2023-01-04T15:17:37.616Z,99162.34
2023-01-04T15:20:08.533Z,99172.97
2023-01-04T15:22:37.653Z,99173.13
2023-01-04T15:25:08.363Z,99172.91
2023-01-04T15:27:42.136Z,99178.66
2023-01-04T15:30:14.867Z,99168.94
2023-01-04T15:32:44.400Z,99164.69
2023-01-04T15:35:16.963Z,99152.38
2023-01-04T15:37:49.483Z,99157.88
2023-01-04T15:40:20.213Z,99156.06
2023-01-04T15:43:01.888Z,99145.31
2023-01-04T15:45:38.298Z,99141.88
2023-01-04T15:48:12.776Z,99132.94
2023-01-04T15:50:45.462Z,99138.31
2023-01-04T15:53:14.687Z,99143.09
2023-01-04T15:55:43.942Z,99138.75
2023-01-04T15:58:13.785Z,99135.09
2023-01-04T16:00:44.315Z,99143.03
2023-01-04T16:03:13.620Z,99135.00
2023-01-04T16:05:42.796Z,99133.25
2023-01-04T16:08:14.554Z,99143.41
2023-01-04T16:10:44.744Z,99150.63
2023-01-04T16:13:13.965Z,99143.31
2023-01-04T16:15:44.718Z,99152.94
2023-01-04T16:18:14.485Z,99155.75
2023-01-04T16:20:43.867Z,99158.00
2023-01-04T16:23:12.972Z,99163.53
2023-01-04T16:25:42.123Z,99160.00
2023-01-04T16:28:11.406Z,99160.50
2023-01-04T16:30:41.513Z,99152.25
2023-01-04T16:33:12.116Z,99147.56
2023-01-04T16:35:41.258Z,99147.66
2023-01-04T16:38:10.412Z,99145.66
2023-01-04T16:40:39.578Z,99144.94
2023-01-04T16:43:08.841Z,99140.53
2023-01-04T16:45:39.039Z,99145.72
2023-01-04T16:48:10.199Z,99138.81
2023-01-04T16:50:44.244Z,99141.19
2023-01-04T16:53:13.345Z,99134.94
2023-01-04T16:55:42.486Z,99121.78
2023-01-04T16:58:11.542Z,99135.31
2023-01-04T17:00:40.826Z,99122.44
2023-01-04T17:03:10.049Z,99128.53
2023-01-04T17:05:40.863Z,99115.75
2023-01-04T17:08:11.452Z,99109.91
2023-01-04T17:10:40.633Z,99098.06
2023-01-04T17:13:09.673Z,99106.81
2023-01-04T17:15:43.504Z,99095.97
2023-01-04T17:18:17.658Z,99114.06
2023-01-04T17:20:54.822Z,99113.53
2023-01-04T17:23:27.179Z,99098.41
2023-01-04T17:26:10.446Z,99103.00
2023-01-04T17:28:41.220Z,99094.63
2023-01-04T17:31:16.168Z,99087.34
2023-01-04T17:33:45.777Z,99074.59
2023-01-04T17:36:18.066Z,99073.41
2023-01-04T17:38:49.365Z,99078.03
2023-01-04T17:41:21.027Z,99068.94
2023-01-04T17:43:53.634Z,99079.84
2023-01-04T17:46:24.599Z,99081.03
2023-01-04T17:49:24.152Z,99079.47
2023-01-04T17:51:43.239Z,99076.41
2023-01-04T17:54:14.078Z,99059.66
2023-01-04T17:56:43.448Z,99053.31
2023-01-04T17:59:12.890Z,99059.72
2023-01-04T18:01:43.871Z,99040.41
2023-01-04T18:04:13.084Z,99040.28
2023-01-04T18:06:42.542Z,99033.09
2023-01-04T18:09:18.496Z,99033.19
2023-01-04T18:11:51.198Z,99038.03
2023-01-04T18:14:20.614Z,99048.88
2023-01-04T18:16:59.287Z,99043.28
2023-01-04T18:19:31.333Z,99040.13
2023-01-04T18:22:00.911Z,99046.44
2023-01-04T18:24:37.372Z,99033.34
2023-01-04T18:27:21.427Z,99040.53
2023-01-04T18:29:52.431Z,99026.81
2023-01-04T18:32:22.159Z,99034.03
2023-01-04T18:34:51.483Z,99030.03
2023-01-04T18:37:20.707Z,99035.13
2023-01-04T18:39:51.353Z,99027.34
2023-01-04T18:42:20.583Z,99020.44
2023-01-04T18:44:50.100Z,99022.06
2023-01-04T18:47:20.789Z,99019.28
2023-01-04T18:49:51.082Z,99021.13
2023-01-04T18:52:20.697Z,99027.34
2023-01-04T18:54:51.244Z,99005.56
2023-01-04T18:57:20.445Z,99009.72
2023-01-04T18:59:50.309Z,99005.50
2023-01-04T19:02:23.673Z,99003.56
2023-01-04T19:04:52.953Z,99007.81
2023-01-04T19:07:22.142Z,99004.88
2023-01-04T19:09:52.775Z,98997.84
2023-01-04T19:12:22.062Z,98995.75
2023-01-04T19:14:51.442Z,98985.44
2023-01-04T19:17:24.548Z,98982.97
2023-01-04T19:19:53.974Z,98980.00
2023-01-04T19:22:23.277Z,98970.00
2023-01-04T19:24:54.028Z,98961.41
2023-01-04T19:27:23.491Z,98958.16
2023-01-04T19:29:53.477Z,98954.66
2023-01-04T19:32:22.734Z,98948.22
2023-01-04T19:34:52.228Z,98936.03
2023-01-04T19:37:21.548Z,98946.03
2023-01-04T19:39:51.051Z,98949.63
2023-01-04T19:42:21.602Z,98949.69
2023-01-04T19:44:50.938Z,98966.56
2023-01-04T19:47:22.449Z,98951.44
2023-01-04T19:49:51.546Z,98948.72
2023-01-04T19:52:23.995Z,98954.31
2023-01-04T19:54:53.300Z,98963.56
2023-01-04T19:57:23.984Z,98964.97
2023-01-04T19:59:53.122Z,98960.81
2023-01-04T20:02:22.382Z,98962.50
2023-01-04T20:04:51.810Z,98959.56
2023-01-04T20:07:24.019Z,98951.56
2023-01-04T20:09:54.052Z,98942.22
2023-01-04T20:12:24.695Z,98940.16
2023-01-04T20:14:54.036Z,98935.38
2023-01-04T20:17:23.412Z,98935.91
2023-01-04T20:19:52.527Z,98923.66
2023-01-04T20:22:22.191Z,98924.75
2023-01-04T20:24:52.313Z,98937.50
2023-01-04T20:27:21.523Z,98940.19
2023-01-04T20:29:51.993Z,98935.78
2023-01-04T20:32:21.106Z,98932.66
2023-01-04T20:34:50.261Z,98924.88
2023-01-04T20:37:19.668Z,98917.44
2023-01-04T20:39:48.925Z,98908.63
2023-01-04T20:42:35.351Z,98904.28
2023-01-04T20:45:08.819Z,98899.47
2023-01-04T20:47:38.035Z,98895.44
2023-01-04T20:50:13.007Z,98900.50
2023-01-04T20:52:42.448Z,98897.19
2023-01-04T20:55:17.222Z,98895.22
2023-01-04T20:57:47.221Z,98896.19
2023-01-04T21:00:20.518Z,98895.09
2023-01-04T21:02:53.193Z,98893.47
2023-01-04T21:05:22.960Z,98892.13
2023-01-04T21:07:52.158Z,98882.38
2023-01-04T21:10:22.349Z,98876.88
2023-01-04T21:12:51.808Z,98876.38
2023-01-04T21:15:23.324Z,98852.78
2023-01-04T21:17:53.802Z,98858.19
2023-01-04T21:20:24.913Z,98850.44
2023-01-04T21:22:56.051Z,98852.25
2023-01-04T21:25:25.529Z,98851.44
2023-01-04T21:28:00.705Z,98851.16
2023-01-04T21:30:31.534Z,98850.00
2023-01-04T21:33:02.249Z,98838.97
2023-01-04T21:35:31.810Z,98856.06
2023-01-04T21:38:01.322Z,98846.50
2023-01-04T21:40:30.656Z,98836.13
2023-01-04T21:42:59.968Z,98832.81
2023-01-04T21:45:30.727Z,98836.59
2023-01-04T21:47:59.849Z,98843.69
2023-01-04T21:50:30.721Z,98819.31
2023-01-04T21:53:00.116Z,98811.25
2023-01-04T21:55:34.844Z,98820.78
2023-01-04T21:58:04.726Z,98820.94
2023-01-04T22:00:35.306Z,98823.13
2023-01-04T22:03:04.572Z,98821.22
2023-01-04T22:05:33.651Z,98831.78
2023-01-04T22:08:02.851Z,98819.03
2023-01-04T22:10:32.026Z,98818.03
2023-01-04T22:13:01.228Z,98809.28
2023-01-04T22:15:30.537Z,98809.56
2023-01-04T22:18:01.158Z,98795.13
2023-01-04T22:20:30.726Z,98779.91
2023-01-04T22:23:00.315Z,98790.25
2023-01-04T22:25:29.429Z,98784.97
2023-01-04T22:27:58.550Z,98783.72
2023-01-04T22:30:27.981Z,98792.00
2023-01-04T22:32:57.337Z,98788.41
2023-01-04T22:35:28.117Z,98795.28
2023-01-04T22:37:57.356Z,98782.31
2023-01-04T22:40:26.763Z,98770.38
2023-01-04T22:42:55.802Z,98783.31
2023-01-04T22:45:24.977Z,98768.59
2023-01-04T22:47:54.098Z,98774.16
2023-01-04T22:50:23.603Z,98763.75
2023-01-04T22:52:55.398Z,98764.13
2023-01-04T22:55:45.771Z,98769.19
2023-01-04T22:58:17.438Z,98753.59
2023-01-04T23:00:46.586Z,98749.75
2023-01-04T23:03:16.300Z,98741.16
2023-01-04T23:05:45.630Z,98731.06
2023-01-04T23:08:16.184Z,98737.94
2023-01-04T23:10:46.609Z,98729.22
2023-01-04T23:13:15.829Z,98728.53
2023-01-04T23:15:45.033Z,98729.56
2023-01-04T23:18:15.504Z,98729.75
2023-01-04T23:20:44.624Z,98718.84
2023-01-04T23:23:15.236Z,98723.75
2023-01-04T23:25:44.419Z,98707.91
2023-01-04T23:28:13.580Z,98702.97
2023-01-04T23:30:44.029Z,98694.91
2023-01-04T23:33:13.327Z,98697.22
2023-01-04T23:35:42.502Z,98693.22
2023-01-04T23:38:11.672Z,98681.53
2023-01-04T23:40:47.732Z,98680.16
2023-01-04T23:43:16.944Z,98668.94
2023-01-04T23:45:51.182Z,98677.63
2023-01-04T23:48:20.875Z,98675.84
2023-01-04T23:50:56.585Z,98659.16
2023-01-04T23:53:26.240Z,98644.78
2023-01-04T23:56:03.185Z,98651.09
2023-01-04T23:58:34.346Z,98645.44
